aviador You're here:

KSTP Decoded Metar

ST. PAUL in MN, USA
Report Time2017-08-18 13:53:00
UTC Time2017-08-18 14:20:20
Flight Rules vfr VFR
WindCalm
Visibility9999 m
Phenomena:N/A
Clouds:N/A
Expected CloudBase > 400 ft AGL from Temp-Dew spread
CeilingNone
Temp18°C (ISA +4)
Dew Point17°C (94% RH)
QNH1012 hPa
Density Alt1,532 ft
Elevation719 ft
Report Wrong Elevation
Raw Report
METAR KSTP 181353Z 00000KT 10SM CLR 18/17 A2987 RMK AO2 SLP111 T01830167=

Extra information for KSTP:More info

Metar Taf Metar & Taf Last 4 Metars F.Rules Stats Wind Profile Meteogram Temp Stats Airport Information Weather charts Add Link Nearby VenuesMetar ALERT Operation Metar Decoded Social comments

AIRNAV info for KSTP